createdAt,value
2019-02-24T00:01:25.915Z,0.63
2019-02-24T00:04:31.706Z,0.30
2019-02-24T00:07:37.489Z,0.50
2019-02-24T00:10:43.245Z,0.35
2019-02-24T00:13:49.028Z,0.71
2019-02-24T00:16:54.828Z,0.34
2019-02-24T00:20:00.610Z,0.66
2019-02-24T00:23:06.446Z,0.70
2019-02-24T00:26:12.208Z,0.26
2019-02-24T00:29:17.984Z,0.68
2019-02-24T00:32:23.739Z,0.91
2019-02-24T00:35:29.593Z,0.82
2019-02-24T00:38:35.357Z,0.82
2019-02-24T00:41:41.114Z,0.71
2019-02-24T00:44:46.878Z,0.74
2019-02-24T00:47:52.628Z,0.85
2019-02-24T00:50:58.394Z,0.30
2019-02-24T00:54:04.150Z,0.55
2019-02-24T00:57:09.934Z,0.75
2019-02-24T01:00:15.903Z,0.45
2019-02-24T01:03:21.790Z,0.37
2019-02-24T01:06:27.554Z,0.25
2019-02-24T01:09:33.369Z,-0.22
2019-02-24T01:12:39.136Z,0.11
2019-02-24T01:15:44.901Z,0.00
2019-02-24T01:18:50.667Z,-0.09
2019-02-24T01:21:56.488Z,-0.04
2019-02-24T01:25:02.293Z,-0.47
2019-02-24T01:28:08.139Z,-0.23
2019-02-24T01:31:13.910Z,-0.62
2019-02-24T01:34:19.671Z,-0.47
2019-02-24T01:37:25.415Z,-0.63
2019-02-24T01:40:31.198Z,-1.37
2019-02-24T01:43:36.955Z,-0.87
2019-02-24T01:46:42.956Z,-0.72
2019-02-24T01:49:48.707Z,-0.87
2019-02-24T01:52:54.537Z,-0.47
2019-02-24T01:56:00.362Z,-1.32
2019-02-24T01:59:06.167Z,-0.79
2019-02-24T02:02:11.940Z,-0.60
2019-02-24T02:05:17.867Z,-0.90
2019-02-24T02:08:23.623Z,-0.59
2019-02-24T02:11:30.511Z,-1.08
2019-02-24T02:14:36.362Z,-0.76
2019-02-24T02:17:42.127Z,-0.48
2019-02-24T02:20:47.899Z,-1.00
2019-02-24T02:23:53.671Z,-0.83
2019-02-24T02:26:59.459Z,-1.39
2019-02-24T02:30:05.887Z,-1.23
2019-02-24T02:33:12.675Z,-0.83
2019-02-24T02:36:18.446Z,-0.78
2019-02-24T02:39:24.221Z,-0.71
2019-02-24T02:42:29.988Z,-0.56
2019-02-24T02:45:35.746Z,-0.54
2019-02-24T02:48:41.635Z,-1.11
2019-02-24T02:51:47.412Z,-1.04
2019-02-24T02:54:53.426Z,-0.55
2019-02-24T02:58:00.190Z,-1.21
2019-02-24T03:01:06.087Z,-0.71
2019-02-24T03:04:11.930Z,-0.88
2019-02-24T03:07:42.716Z,-0.66
2019-02-24T03:10:48.546Z,-0.13
2019-02-24T03:13:54.369Z,0.20
2019-02-24T03:17:00.139Z,0.30
2019-02-24T03:20:06.104Z,0.25
2019-02-24T03:23:11.866Z,-0.02
2019-02-24T03:26:17.618Z,0.28
2019-02-24T03:29:23.364Z,0.33
2019-02-24T03:32:29.138Z,0.48
2019-02-24T03:35:34.915Z,0.50
2019-02-24T03:38:40.703Z,0.25
2019-02-24T03:41:46.497Z,0.46
2019-02-24T03:44:52.255Z,0.24
2019-02-24T03:47:58.005Z,0.48
2019-02-24T03:51:03.793Z,0.50
2019-02-24T03:54:09.642Z,0.11
2019-02-24T03:57:15.455Z,0.22
2019-02-24T04:00:21.237Z,0.23
2019-02-24T04:03:27.221Z,0.29
2019-02-24T04:06:32.989Z,0.34
2019-02-24T04:09:38.774Z,0.19
2019-02-24T04:12:44.757Z,0.17
2019-02-24T04:15:50.515Z,0.26
2019-02-24T04:18:56.319Z,0.18
2019-02-24T04:22:02.073Z,0.19
2019-02-24T04:25:07.982Z,-0.10
2019-02-24T04:28:13.748Z,0.06
2019-02-24T04:31:19.552Z,0.27
2019-02-24T04:34:25.345Z,0.40
2019-02-24T04:37:31.131Z,0.17
2019-02-24T04:40:37.015Z,0.29
2019-02-24T04:43:42.769Z,0.21
2019-02-24T04:46:48.532Z,0.19
2019-02-24T04:49:54.283Z,0.52
2019-02-24T04:53:01.183Z,0.50
2019-02-24T04:56:07.152Z,0.46
2019-02-24T04:59:12.951Z,0.46
2019-02-24T05:02:18.705Z,0.49
2019-02-24T05:05:24.484Z,0.59
2019-02-24T05:08:30.268Z,0.81
2019-02-24T05:11:37.044Z,0.66
2019-02-24T05:14:42.825Z,0.40
2019-02-24T05:17:48.712Z,0.24
2019-02-24T05:20:54.519Z,0.60
2019-02-24T05:24:00.279Z,0.55
2019-02-24T05:27:06.041Z,0.45
2019-02-24T05:30:11.950Z,0.45
2019-02-24T05:33:17.732Z,0.48
2019-02-24T05:36:23.505Z,0.43
2019-02-24T05:39:29.277Z,0.44
2019-02-24T05:42:35.097Z,0.49
2019-02-24T05:45:40.869Z,0.50
2019-02-24T05:48:46.667Z,0.36
2019-02-24T05:51:52.442Z,0.70
2019-02-24T05:54:58.209Z,0.82
2019-02-24T05:58:03.999Z,0.74
2019-02-24T06:01:09.763Z,0.78
2019-02-24T06:04:15.550Z,0.87
2019-02-24T06:07:21.292Z,0.97
2019-02-24T06:10:27.070Z,1.09
2019-02-24T06:13:32.953Z,1.30
2019-02-24T06:16:38.860Z,0.94
2019-02-24T06:19:44.636Z,1.21
2019-02-24T06:22:50.429Z,1.06
2019-02-24T06:25:56.245Z,1.05
2019-02-24T06:29:03.164Z,1.25
2019-02-24T06:32:08.995Z,1.42
2019-02-24T06:35:14.901Z,1.42
2019-02-24T06:38:20.759Z,1.52
2019-02-24T06:41:26.531Z,1.52
2019-02-24T06:44:32.299Z,1.60
2019-02-24T06:47:38.083Z,1.79
2019-02-24T06:51:08.545Z,1.70
2019-02-24T06:54:14.727Z,1.95
2019-02-24T06:57:20.505Z,1.86
2019-02-24T07:00:26.294Z,1.95
2019-02-24T07:03:32.098Z,1.96
2019-02-24T07:06:37.852Z,2.09
2019-02-24T07:09:43.726Z,1.88
2019-02-24T07:12:49.549Z,1.92
2019-02-24T07:15:55.465Z,2.18
2019-02-24T07:19:01.351Z,1.98
2019-02-24T07:22:07.133Z,2.00
2019-02-24T07:25:12.940Z,1.69
2019-02-24T07:28:18.716Z,1.16
2019-02-24T07:31:24.534Z,1.74
2019-02-24T07:34:30.307Z,2.21
2019-02-24T07:37:36.276Z,2.24
2019-02-24T07:40:42.129Z,2.59
2019-02-24T07:43:47.931Z,2.63
2019-02-24T07:46:53.715Z,2.77
2019-02-24T07:49:59.462Z,2.86
2019-02-24T07:53:05.286Z,3.07
2019-02-24T07:56:11.365Z,3.26
2019-02-24T07:59:17.229Z,3.11
2019-02-24T08:02:23.069Z,3.28
2019-02-24T08:05:29.015Z,3.41
2019-02-24T08:08:35.752Z,3.43
2019-02-24T08:11:41.621Z,3.29
2019-02-24T08:14:47.449Z,3.43
2019-02-24T08:17:53.206Z,2.79
2019-02-24T08:20:59.201Z,3.04
2019-02-24T08:24:05.057Z,3.08
2019-02-24T08:27:10.883Z,3.15
2019-02-24T08:30:16.649Z,3.48
2019-02-24T08:33:22.426Z,3.45
2019-02-24T08:36:28.306Z,3.43
2019-02-24T08:39:34.105Z,3.70
2019-02-24T08:42:39.923Z,3.47
2019-02-24T08:45:45.728Z,3.69
2019-02-24T08:48:52.730Z,3.80
2019-02-24T08:51:58.880Z,4.00
2019-02-24T08:55:04.951Z,4.17
2019-02-24T08:58:10.753Z,4.32
2019-02-24T09:01:16.776Z,3.61
2019-02-24T09:04:22.984Z,3.48
2019-02-24T09:07:28.768Z,4.57
2019-02-24T09:10:34.580Z,4.67
2019-02-24T09:13:40.383Z,5.13
2019-02-24T09:16:46.143Z,5.50
2019-02-24T09:19:51.992Z,5.93
2019-02-24T09:22:57.799Z,6.10
2019-02-24T09:26:03.735Z,6.05
2019-02-24T09:29:09.500Z,5.91
2019-02-24T09:32:15.317Z,5.66
2019-02-24T09:35:21.111Z,6.23
2019-02-24T09:38:26.949Z,6.15
2019-02-24T09:41:32.825Z,5.32
2019-02-24T09:44:38.716Z,5.58
2019-02-24T09:47:47.002Z,5.56
2019-02-24T09:50:53.130Z,4.84
2019-02-24T09:53:59.050Z,4.67
2019-02-24T09:57:04.957Z,3.73
2019-02-24T10:00:11.466Z,4.01
2019-02-24T10:03:18.347Z,3.74
2019-02-24T10:06:26.604Z,3.38
2019-02-24T10:09:32.458Z,3.85
2019-02-24T10:12:39.355Z,2.90
2019-02-24T10:15:45.154Z,3.89
2019-02-24T10:18:50.957Z,4.21
2019-02-24T10:21:56.731Z,4.33
2019-02-24T10:25:02.651Z,4.03
2019-02-24T10:28:09.511Z,4.08
2019-02-24T10:31:19.911Z,4.56
2019-02-24T10:34:22.910Z,5.10
2019-02-24T10:37:28.705Z,5.31
2019-02-24T10:40:34.550Z,5.33
2019-02-24T10:43:40.325Z,5.67
2019-02-24T10:46:46.207Z,5.40
2019-02-24T10:49:51.967Z,6.04
2019-02-24T10:52:57.714Z,5.78
2019-02-24T10:56:03.525Z,4.96
2019-02-24T10:59:10.207Z,6.41
2019-02-24T11:02:16.070Z,6.28
2019-02-24T11:05:21.959Z,6.77
2019-02-24T11:08:27.865Z,6.94
2019-02-24T11:11:33.676Z,6.64
2019-02-24T11:14:39.485Z,6.43
2019-02-24T11:17:45.274Z,6.14
2019-02-24T11:20:51.003Z,6.57
2019-02-24T11:23:56.781Z,6.24
2019-02-24T11:27:02.553Z,5.99
2019-02-24T11:30:09.037Z,6.55
2019-02-24T11:33:14.964Z,6.76
2019-02-24T11:36:21.270Z,6.91
2019-02-24T11:39:27.065Z,6.86
2019-02-24T11:42:32.961Z,7.67
2019-02-24T11:45:38.722Z,7.29
2019-02-24T11:48:44.515Z,7.64
2019-02-24T11:51:50.267Z,7.56
2019-02-24T11:54:59.151Z,7.47
2019-02-24T11:58:04.921Z,7.25
2019-02-24T12:01:10.691Z,6.90
2019-02-24T12:04:16.472Z,7.48
2019-02-24T12:07:22.253Z,7.81
2019-02-24T12:10:28.068Z,8.20
2019-02-24T12:13:33.962Z,8.32
2019-02-24T12:16:39.709Z,8.06
2019-02-24T12:19:45.506Z,7.51
2019-02-24T12:22:51.266Z,7.73
2019-02-24T12:25:57.219Z,7.07
2019-02-24T12:29:02.999Z,7.31
2019-02-24T12:32:09.154Z,6.16
2019-02-24T12:35:15.074Z,5.25
2019-02-24T12:38:20.928Z,6.28
2019-02-24T12:41:26.728Z,6.14
2019-02-24T12:44:32.595Z,5.88
2019-02-24T12:47:38.665Z,6.48
2019-02-24T12:50:47.461Z,6.78
2019-02-24T12:53:53.238Z,6.44
2019-02-24T12:56:58.997Z,5.91
2019-02-24T13:00:05.249Z,6.10
2019-02-24T13:03:11.115Z,6.48
2019-02-24T13:06:16.899Z,7.21
2019-02-24T13:09:24.195Z,7.53
2019-02-24T13:12:30.100Z,6.16
2019-02-24T13:15:36.122Z,5.80
2019-02-24T13:18:42.025Z,6.32
2019-02-24T13:21:47.937Z,6.06
2019-02-24T13:24:54.832Z,6.39
2019-02-24T13:28:00.689Z,6.68
2019-02-24T13:31:06.531Z,7.22
2019-02-24T13:34:12.393Z,7.41
2019-02-24T13:37:18.157Z,6.16
2019-02-24T13:40:23.932Z,6.78
2019-02-24T13:43:29.826Z,5.71
2019-02-24T13:46:35.740Z,6.47
2019-02-24T13:49:42.997Z,6.54
2019-02-24T13:52:49.029Z,6.58
2019-02-24T13:55:54.865Z,6.78
2019-02-24T13:59:00.717Z,7.22
2019-02-24T14:02:06.456Z,5.01
2019-02-24T14:05:13.811Z,4.48
2019-02-24T14:08:19.620Z,4.06
2019-02-24T14:11:25.685Z,4.90
2019-02-24T14:14:31.562Z,4.94
2019-02-24T14:17:37.308Z,5.18
2019-02-24T14:20:43.301Z,4.77
2019-02-24T14:23:49.060Z,4.47
2019-02-24T14:26:55.045Z,3.90
2019-02-24T14:30:00.895Z,4.27
2019-02-24T14:33:07.959Z,4.90
2019-02-24T14:36:13.850Z,4.49
2019-02-24T14:39:22.156Z,5.19
2019-02-24T14:42:28.075Z,4.12
2019-02-24T14:45:33.969Z,4.20
2019-02-24T14:48:39.760Z,3.78
2019-02-24T14:51:45.551Z,3.80
2019-02-24T14:54:52.430Z,2.85
2019-02-24T14:57:58.183Z,2.79
2019-02-24T15:01:04.151Z,2.83
2019-02-24T15:04:09.963Z,2.54
2019-02-24T15:07:15.743Z,2.92
2019-02-24T15:10:21.626Z,2.92
2019-02-24T15:13:27.485Z,3.17
2019-02-24T15:16:33.287Z,3.16
2019-02-24T15:19:39.118Z,3.05
2019-02-24T15:22:44.984Z,3.01
2019-02-24T15:25:50.744Z,3.20
2019-02-24T15:28:56.506Z,3.33
2019-02-24T15:32:02.303Z,2.64
2019-02-24T15:35:08.574Z,2.60
2019-02-24T15:38:14.507Z,1.90
2019-02-24T15:41:29.338Z,2.32
2019-02-24T15:44:27.738Z,1.97
2019-02-24T15:47:33.572Z,2.20
2019-02-24T15:50:39.503Z,2.03
2019-02-24T15:53:45.366Z,1.97
2019-02-24T15:56:51.160Z,1.95
2019-02-24T15:59:56.916Z,2.21
2019-02-24T16:03:02.818Z,1.51
2019-02-24T16:06:08.601Z,2.18
2019-02-24T16:09:14.381Z,2.27
2019-02-24T16:12:20.138Z,2.02
2019-02-24T16:15:26.244Z,2.08
2019-02-24T16:18:32.022Z,1.96
2019-02-24T16:21:37.845Z,2.23
2019-02-24T16:24:43.606Z,2.18
2019-02-24T16:27:49.378Z,2.37
2019-02-24T16:30:55.154Z,2.31
2019-02-24T16:34:00.973Z,2.35
2019-02-24T16:37:06.759Z,2.43
2019-02-24T16:40:19.202Z,2.27
2019-02-24T16:43:25.455Z,2.06
2019-02-24T16:46:31.468Z,2.35
2019-02-24T16:49:37.346Z,1.81
2019-02-24T16:52:43.163Z,2.02
2019-02-24T16:55:49.027Z,2.18
2019-02-24T16:58:54.890Z,2.53
2019-02-24T17:02:00.698Z,2.54
2019-02-24T17:05:07.960Z,2.72
2019-02-24T17:08:14.057Z,2.65
2019-02-24T17:11:19.994Z,2.76
2019-02-24T17:14:25.870Z,2.32
2019-02-24T17:17:31.624Z,2.00
2019-02-24T17:20:37.394Z,2.26
2019-02-24T17:23:49.678Z,2.45
2019-02-24T17:26:51.043Z,2.36
2019-02-24T17:29:56.850Z,2.32
2019-02-24T17:33:02.627Z,2.64
2019-02-24T17:36:08.437Z,2.47
2019-02-24T17:39:14.344Z,1.98
2019-02-24T17:42:20.444Z,1.83
2019-02-24T17:45:26.217Z,1.97
2019-02-24T17:48:32.148Z,1.73
2019-02-24T17:51:38.009Z,1.89
2019-02-24T17:54:43.764Z,1.80
2019-02-24T17:57:49.708Z,1.85
2019-02-24T18:01:00.978Z,2.02
2019-02-24T18:04:07.039Z,2.29
2019-02-24T18:07:12.832Z,2.10
2019-02-24T18:10:18.852Z,2.39
2019-02-24T18:13:24.687Z,2.49
2019-02-24T18:16:30.569Z,2.33
2019-02-24T18:19:36.412Z,2.32
2019-02-24T18:22:42.480Z,2.06
2019-02-24T18:25:48.318Z,1.79
2019-02-24T18:28:54.093Z,2.01
2019-02-24T18:32:02.173Z,2.04
2019-02-24T18:35:10.972Z,2.19
2019-02-24T18:38:16.881Z,2.23
2019-02-24T18:41:22.668Z,2.06
2019-02-24T18:44:28.540Z,1.91
2019-02-24T18:47:34.316Z,2.09
2019-02-24T18:50:40.069Z,2.09
2019-02-24T18:53:45.833Z,2.02
2019-02-24T18:56:51.732Z,1.76
2019-02-24T18:59:57.550Z,1.80
2019-02-24T19:03:03.352Z,1.99
2019-02-24T19:06:09.241Z,1.91
2019-02-24T19:09:15.063Z,1.66
2019-02-24T19:12:20.870Z,1.45
2019-02-24T19:15:26.844Z,1.44
2019-02-24T19:18:32.629Z,1.59
2019-02-24T19:21:38.378Z,1.37
2019-02-24T19:24:44.144Z,1.18
2019-02-24T19:27:50.067Z,1.35
2019-02-24T19:30:55.923Z,1.35
2019-02-24T19:34:06.691Z,1.21
2019-02-24T19:37:09.186Z,1.51
2019-02-24T19:40:16.215Z,1.22
2019-02-24T19:43:22.029Z,0.72
2019-02-24T19:46:27.902Z,1.35
2019-02-24T19:49:33.684Z,0.91
2019-02-24T19:52:39.670Z,0.85
2019-02-24T19:55:45.449Z,1.13
2019-02-24T19:58:51.340Z,0.72
2019-02-24T20:01:57.350Z,0.74
2019-02-24T20:05:03.106Z,0.96
2019-02-24T20:08:08.889Z,1.19
2019-02-24T20:11:14.775Z,1.41
2019-02-24T20:14:20.625Z,1.50
2019-02-24T20:17:26.512Z,1.29
2019-02-24T20:20:32.566Z,1.65
2019-02-24T20:23:38.350Z,1.57
2019-02-24T20:26:44.222Z,1.66
2019-02-24T20:29:50.059Z,1.62
2019-02-24T20:32:56.115Z,1.54
2019-02-24T20:36:02.085Z,1.46
2019-02-24T20:39:09.166Z,1.40
2019-02-24T20:42:15.671Z,1.30
2019-02-24T20:45:21.570Z,1.63
2019-02-24T20:48:27.423Z,1.86
2019-02-24T20:51:33.179Z,1.90
2019-02-24T20:54:38.992Z,1.83
2019-02-24T20:57:44.962Z,2.17
2019-02-24T21:00:50.938Z,2.11
2019-02-24T21:03:56.714Z,2.07
2019-02-24T21:07:02.495Z,2.09
2019-02-24T21:10:09.508Z,2.45
2019-02-24T21:13:16.911Z,2.13
2019-02-24T21:16:22.755Z,2.16
2019-02-24T21:19:28.614Z,2.17
2019-02-24T21:22:34.421Z,2.30
2019-02-24T21:25:40.240Z,2.32
2019-02-24T21:28:46.019Z,2.64
2019-02-24T21:31:51.780Z,2.76
2019-02-24T21:34:57.578Z,2.51
2019-02-24T21:38:03.398Z,2.62
2019-02-24T21:41:09.161Z,2.70
2019-02-24T21:44:14.957Z,2.61
2019-02-24T21:47:20.722Z,2.80
2019-02-24T21:50:26.622Z,3.00
2019-02-24T21:53:32.423Z,2.81
2019-02-24T21:56:40.161Z,2.87
2019-02-24T21:59:45.654Z,2.84
2019-02-24T22:02:51.559Z,2.69
2019-02-24T22:05:57.358Z,2.81
2019-02-24T22:09:03.320Z,2.41
2019-02-24T22:12:10.676Z,2.65
2019-02-24T22:15:17.895Z,2.48
2019-02-24T22:18:24.112Z,2.82
2019-02-24T22:21:30.069Z,3.08
2019-02-24T22:24:35.871Z,2.20
2019-02-24T22:27:41.627Z,2.79
2019-02-24T22:30:47.429Z,2.95
2019-02-24T22:33:53.344Z,2.70
2019-02-24T22:36:59.127Z,2.90
2019-02-24T22:40:06.875Z,3.01
2019-02-24T22:43:12.639Z,2.22
2019-02-24T22:46:18.402Z,2.56
2019-02-24T22:49:24.186Z,2.54
2019-02-24T22:52:29.945Z,1.88
2019-02-24T22:55:35.714Z,2.34
2019-02-24T22:58:41.512Z,2.17
2019-02-24T23:01:49.329Z,2.36
2019-02-24T23:04:55.587Z,2.32
2019-02-24T23:08:01.466Z,2.50
2019-02-24T23:11:08.792Z,2.43
2019-02-24T23:14:14.760Z,2.58
2019-02-24T23:17:20.635Z,2.63
2019-02-24T23:20:26.411Z,2.83
2019-02-24T23:23:32.190Z,3.10
2019-02-24T23:26:37.958Z,3.03
2019-02-24T23:29:43.731Z,3.01
2019-02-24T23:32:49.504Z,2.41
2019-02-24T23:35:57.403Z,2.34
2019-02-24T23:39:02.969Z,1.87
2019-02-24T23:42:10.303Z,1.70
2019-02-24T23:45:16.202Z,1.83
2019-02-24T23:48:21.992Z,1.43
2019-02-24T23:51:27.762Z,1.60
2019-02-24T23:54:33.528Z,1.96
2019-02-24T23:57:40.412Z,1.36
